Time;durP1;ratioP1;P1;durP2;ratioP2;P2;SDS_P1;SDS_P2;PMS_P1;PMS_P2;Temp;Humidity;BMP_temperature;BMP_pressure;BME280_temperature;BME280_humidity;BME280_pressure;Samples;Min_cycle;Max_cycle;Signal;HPM_P1;HPM_P2
2023/06/03 00:00:41;;;;;;;9.70;3.70;;;;;;;13.22;100.00;94284.91;5055838;28;20034;-80
2023/06/03 00:03:13;;;;;;;5.75;4.00;;;;;;;13.14;100.00;94286.34;5073799;28;20448;-80
2023/06/03 00:05:39;;;;;;;9.98;3.92;;;;;;;13.22;100.00;94289.41;5055838;28;20035;-81
2023/06/03 00:08:05;;;;;;;8.63;3.95;;;;;;;13.16;100.00;94288.69;5055791;28;20032;-80
2023/06/03 00:10:49;;;;;;;8.30;4.13;;;;;;;13.01;100.00;94290.47;5056104;28;20323;-81
2023/06/03 00:13:14;;;;;;;8.10;3.60;;;;;;;13.05;100.00;94288.03;5055782;28;20025;-80
2023/06/03 00:15:40;;;;;;;6.72;3.55;;;;;;;13.14;100.00;94296.88;5055408;28;20051;-80
2023/06/03 00:18:06;;;;;;;6.53;3.45;;;;;;;13.38;100.00;94290.75;5055739;28;20035;-81
2023/06/03 00:20:36;;;;;;;5.70;3.20;;;;;;;13.40;100.00;94298.34;5055679;28;20392;-80
2023/06/03 00:23:23;;;;;;;6.32;3.80;;;;;;;13.17;100.00;94297.38;5073897;28;20418;-80
2023/06/03 00:25:49;;;;;;;11.05;3.80;;;;;;;12.98;100.00;94298.94;5073147;28;20064;-80
2023/06/03 00:28:15;;;;;;;7.40;3.47;;;;;;;13.04;100.00;94290.97;5055719;28;20071;-80
2023/06/03 00:30:59;;;;;;;6.35;3.50;;;;;;;13.22;100.00;94292.03;5055778;28;20500;-80
2023/06/03 00:33:24;;;;;;;10.32;4.13;;;;;;;13.24;100.00;94295.16;5055801;28;20035;-80
2023/06/03 00:38:34;;;;;;;9.27;3.50;;;;;;;13.33;100.00;94297.94;5058346;28;20039;-80
2023/06/03 00:40:59;;;;;;;5.68;3.70;;;;;;;13.53;100.00;94305.53;5038866;28;20044;-81
2023/06/03 00:43:43;;;;;;;8.07;3.70;;;;;;;13.60;100.00;94301.78;5055542;28;20040;-80
2023/06/03 00:46:10;;;;;;;7.25;3.60;;;;;;;13.79;100.00;94304.38;5055489;28;20488;-81
2023/06/03 00:51:38;;;;;;;5.72;3.72;;;;;;;13.73;100.00;94306.31;5058175;28;20028;-81
2023/06/03 00:54:22;;;;;;;5.53;3.75;;;;;;;13.64;100.00;94303.56;5055623;28;20024;-80
2023/06/03 00:56:49;;;;;;;10.10;3.72;;;;;;;13.50;100.00;94302.72;5054900;28;20127;-80
2023/06/03 00:59:34;;;;;;;8.40;4.10;;;;;;;13.32;100.00;94299.78;5038410;28;20032;-81
2023/06/03 01:02:00;;;;;;;5.78;3.72;;;;;;;13.47;100.00;94301.44;5073245;28;20025;-80
2023/06/03 01:04:26;;;;;;;10.93;4.10;;;;;;;13.73;100.00;94310.78;5055336;28;20071;-80
2023/06/03 01:07:10;;;;;;;8.68;3.53;;;;;;;13.82;100.00;94312.44;5057209;28;20024;-81
2023/06/03 01:09:44;;;;;;;;;;;;;;;13.80;100.00;94316.47;5077259;28;20035;-80
2023/06/03 01:12:31;;;;;;;8.85;3.78;;;;;;;13.84;100.00;94312.19;5076846;28;19908;-80
2023/06/03 01:15:03;;;;;;;7.75;3.85;;;;;;;13.70;100.00;94309.50;5042772;28;20435;-81
2023/06/03 01:17:31;;;;;;;4.88;3.47;;;;;;;13.70;100.00;94315.56;5058591;28;20028;-80
2023/06/03 01:19:59;;;;;;;4.10;3.22;;;;;;;13.51;100.00;94309.53;5058692;28;20326;-81
2023/06/03 01:22:26;;;;;;;6.28;3.65;;;;;;;13.59;100.00;94305.47;5058740;28;20032;-81
2023/06/03 01:25:15;;;;;;;9.20;4.07;;;;;;;13.28;100.00;94309.31;5058804;28;20040;-81
2023/06/03 01:28:00;;;;;;;5.53;3.38;;;;;;;13.47;100.00;94316.44;5058350;28;20033;-80
2023/06/03 01:30:25;;;;;;;9.85;3.97;;;;;;;13.34;100.00;94315.28;5058625;28;20115;-80
2023/06/03 01:32:51;;;;;;;7.05;4.00;;;;;;;13.32;100.00;94315.56;5058553;28;20500;-80
2023/06/03 01:35:35;;;;;;;5.70;3.53;;;;;;;13.53;100.00;94313.44;5058300;28;20099;-80
2023/06/03 01:38:01;;;;;;;4.80;3.55;;;;;;;13.89;100.00;94319.22;5058647;28;20131;-80
2023/06/03 01:40:27;;;;;;;7.07;3.70;;;;;;;13.71;100.00;94325.00;5058361;28;20544;-80
2023/06/03 01:43:11;;;;;;;7.25;3.33;;;;;;;13.74;100.00;94331.56;5042168;28;20115;-81
2023/06/03 01:45:36;;;;;;;6.05;3.85;;;;;;;13.76;100.00;94326.78;5075660;28;20131;-80
2023/06/03 01:48:02;;;;;;;7.28;3.50;;;;;;;14.05;100.00;94322.34;5058161;28;20110;-80
2023/06/03 01:50:27;;;;;;;5.30;3.40;;;;;;;13.94;100.00;94319.91;5058324;28;20123;-80
2023/06/03 01:55:37;;;;;;;7.45;4.03;;;;;;;13.73;100.00;94319.47;5060378;28;20362;-80
2023/06/03 01:58:03;;;;;;;7.35;4.00;;;;;;;13.83;100.00;94321.16;5058229;28;20028;-80
2023/06/03 02:00:28;;;;;;;7.47;3.25;;;;;;;13.82;100.00;94330.13;5057839;28;20040;-81
2023/06/03 02:03:12;;;;;;;7.43;3.80;;;;;;;13.64;100.00;94321.97;5075834;28;20035;-80
2023/06/03 02:05:38;;;;;;;6.47;3.83;;;;;;;13.55;100.00;94332.34;5075199;28;20483;-80
2023/06/03 02:08:03;;;;;;;8.02;3.63;;;;;;;13.41;100.00;94326.22;5041027;28;20032;-81
2023/06/03 02:10:29;;;;;;;7.15;4.07;;;;;;;13.24;100.00;94324.88;5058051;28;20127;-81
2023/06/03 02:12:54;;;;;;;7.70;4.65;;;;;;;13.03;100.00;94323.59;5058009;28;20024;-81
2023/06/03 02:15:19;;;;;;;8.05;4.78;;;;;;;12.92;100.00;94328.97;5057660;28;20323;-81
2023/06/03 02:20:29;;;;;;;5.38;3.97;;;;;;;12.85;100.00;94331.97;5060233;28;20087;-81
2023/06/03 02:22:57;;;;;;;5.32;3.58;;;;;;;12.87;100.00;94332.47;5075539;28;20024;-80
2023/06/03 02:25:22;;;;;;;7.57;4.20;;;;;;;12.80;100.00;94334.66;5040788;28;20461;-80
2023/06/03 02:27:48;;;;;;;5.90;4.07;;;;;;;12.91;100.00;94337.16;5075384;28;20033;-80
2023/06/03 02:30:13;;;;;;;8.45;4.15;;;;;;;12.93;100.00;94341.06;5057345;28;20028;-80
2023/06/03 02:32:38;;;;;;;5.90;3.97;;;;;;;12.98;100.00;94341.03;5057360;28;20130;-80
2023/06/03 02:35:04;;;;;;;8.85;4.10;;;;;;;13.08;100.00;94342.72;5057900;28;20024;-80
2023/06/03 02:37:30;;;;;;;7.68;3.88;;;;;;;13.07;100.00;94353.53;5056829;28;20021;-81
2023/06/03 02:40:15;;;;;;;9.88;4.65;;;;;;;13.18;100.00;94348.91;5057402;28;20033;-80
2023/06/03 02:42:40;;;;;;;6.75;4.18;;;;;;;13.24;100.00;94351.19;5057407;28;20024;-80
2023/06/03 02:47:50;;;;;;;8.18;4.85;;;;;;;13.56;100.00;94360.25;5059742;28;20059;-80
2023/06/03 02:50:16;;;;;;;8.80;4.43;;;;;;;13.59;100.00;94363.38;5057102;28;20119;-81
2023/06/03 02:52:41;;;;;;;9.20;4.38;;;;;;;13.37;100.00;94368.13;5057069;28;20032;-80
2023/06/03 02:55:07;;;;;;;7.60;4.78;;;;;;;13.28;100.00;94373.25;5057179;28;20032;-81
2023/06/03 02:57:33;;;;;;;8.15;4.80;;;;;;;13.26;100.00;94383.25;5074190;28;20032;-80
2023/06/03 02:59:58;;;;;;;6.05;4.10;;;;;;;13.23;100.00;94377.78;5056753;28;20446;-80
2023/06/03 03:02:44;;;;;;;7.63;4.43;;;;;;;13.15;100.00;94381.84;5074937;28;20400;-80
2023/06/03 03:05:10;;;;;;;12.85;6.82;;;;;;;13.22;100.00;94376.22;5074520;28;20067;-80
2023/06/03 03:07:55;;;;;;;11.32;5.30;;;;;;;13.33;100.00;94382.13;5056375;28;20029;-80
2023/06/03 03:10:20;;;;;;;9.30;6.22;;;;;;;13.31;100.00;94389.53;5074596;28;20043;-80
2023/06/03 03:13:05;;;;;;;14.52;6.60;;;;;;;13.22;100.00;94382.25;5040190;28;20337;-80
2023/06/03 03:15:49;;;;;;;12.90;7.25;;;;;;;13.24;100.00;94388.00;5056233;28;20032;-80
2023/06/03 03:18:14;;;;;;;15.45;8.32;;;;;;;13.34;100.00;94396.84;5074453;28;20028;-80
2023/06/03 03:20:40;;;;;;;13.18;8.45;;;;;;;13.18;100.00;94391.78;5056538;28;20280;-80
2023/06/03 03:23:06;;;;;;;18.80;8.95;;;;;;;13.09;100.00;94394.28;5074279;28;20089;-80
2023/06/03 03:25:50;;;;;;;14.95;8.50;;;;;;;13.00;100.00;94396.75;5056068;28;20055;-80
2023/06/03 03:28:16;;;;;;;17.02;10.13;;;;;;;13.05;100.00;94397.75;5056316;28;20388;-80
2023/06/03 03:31:00;;;;;;;14.57;10.27;;;;;;;13.01;100.00;94413.28;5056242;28;20032;-80
2023/06/03 03:33:50;;;;;;;17.95;10.75;;;;;;;13.15;100.00;94408.16;5074713;28;20033;-80
2023/06/03 03:39:02;;;;;;;21.90;12.02;;;;;;;13.51;100.00;94412.19;5058962;28;20123;-80
2023/06/03 03:41:47;;;;;;;14.68;9.75;;;;;;;13.54;100.00;94403.72;5039730;28;20346;-80
2023/06/03 03:44:12;;;;;;;21.98;10.85;;;;;;;13.74;100.00;94409.75;5056054;28;20139;-80
2023/06/03 03:46:58;;;;;;;20.75;10.82;;;;;;;13.67;100.00;94413.53;5055547;28;20353;-80
2023/06/03 03:49:29;;;;;;;15.00;10.25;;;;;;;13.94;100.00;94422.63;5039822;28;20032;-80
2023/06/03 03:51:56;;;;;;;19.33;11.20;;;;;;;13.94;100.00;94420.00;5056180;28;20036;-81
2023/06/03 03:54:25;;;;;;;18.27;10.23;;;;;;;14.08;100.00;94417.41;5055982;28;20032;-80
2023/06/03 03:57:13;;;;;;;15.68;10.60;;;;;;;14.16;100.00;94423.09;5039148;28;20387;-80
2023/06/03 03:59:38;;;;;;;16.45;10.27;;;;;;;14.09;100.00;94424.22;5073791;28;20354;-80
2023/06/03 04:02:04;;;;;;;17.30;11.40;;;;;;;14.21;100.00;94418.53;5039159;28;20032;-80
2023/06/03 04:04:40;;;;;;;17.27;10.38;;;;;;;14.25;100.00;94424.00;5055866;28;20451;-80
2023/06/03 04:07:08;;;;;;;17.20;10.52;;;;;;;14.25;100.00;94421.34;5055545;28;20060;-80
2023/06/03 04:12:29;;;;;;;14.15;9.98;;;;;;;14.56;100.00;94421.63;5074060;28;20090;-81
2023/06/03 04:14:57;;;;;;;13.93;9.30;;;;;;;14.59;100.00;94424.75;5039400;28;20020;-81
2023/06/03 04:17:25;;;;;;;17.52;9.18;;;;;;;14.64;100.00;94437.84;5055821;28;20127;-81
2023/06/03 04:19:51;;;;;;;16.63;10.10;;;;;;;14.69;100.00;94430.63;5039567;28;20055;-81
2023/06/03 04:22:21;;;;;;;13.70;9.60;;;;;;;14.78;100.00;94427.34;5039271;28;20414;-80
2023/06/03 04:24:54;;;;;;;13.65;9.70;;;;;;;14.87;100.00;94430.88;5055696;28;20044;-81
2023/06/03 04:30:04;;;;;;;16.85;9.60;;;;;;;14.77;100.00;94437.09;5058456;28;20110;-81
2023/06/03 04:32:49;;;;;;;15.77;10.70;;;;;;;14.48;100.00;94439.97;5055619;28;20446;-81
2023/06/03 04:35:14;;;;;;;16.63;10.98;;;;;;;14.51;100.00;94434.91;5073545;28;20044;-81
2023/06/03 04:38:18;;;;;;;17.77;9.82;;;;;;;14.82;100.00;94433.59;5038792;28;20035;-81
2023/06/03 04:40:45;;;;;;;18.65;10.43;;;;;;;15.07;100.00;94440.25;5056290;28;20508;-81
2023/06/03 04:43:29;;;;;;;15.27;10.25;;;;;;;15.27;100.00;94443.56;5059610;28;20057;-80
2023/06/03 04:45:55;;;;;;;16.48;10.50;;;;;;;15.33;100.00;94438.97;5058895;28;20033;-80
2023/06/03 04:48:45;;;;;;;15.73;9.63;;;;;;;15.45;100.00;94444.53;5059424;28;20033;-81
2023/06/03 04:51:11;;;;;;;16.13;9.77;;;;;;;15.68;100.00;94434.00;5077193;28;20081;-80
2023/06/03 04:53:40;;;;;;;20.35;11.63;;;;;;;15.64;100.00;94433.03;5059220;28;20040;-81
2023/06/03 04:56:06;;;;;;;17.00;9.65;;;;;;;15.68;100.00;94434.00;5058875;28;20029;-81
2023/06/03 04:58:31;;;;;;;16.35;9.82;;;;;;;15.63;100.00;94436.75;5059454;28;20074;-81
2023/06/03 05:01:17;;;;;;;15.65;9.48;;;;;;;15.51;100.00;94440.69;5059062;28;20119;-81
2023/06/03 05:06:26;;;;;;;12.95;8.70;;;;;;;15.63;100.00;94445.44;5061367;28;20365;-81
2023/06/03 05:08:51;;;;;;;15.80;8.73;;;;;;;15.86;100.00;94444.72;5076909;28;20028;-81
2023/06/03 05:14:01;;;;;;;15.75;8.77;;;;;;;16.04;100.00;94443.81;5061707;28;20032;-81
2023/06/03 05:16:46;;;;;;;14.45;9.65;;;;;;;15.45;100.00;94443.72;5059172;28;20028;-81
2023/06/03 05:19:11;;;;;;;16.50;10.80;;;;;;;15.46;100.00;94456.66;5042283;28;20043;-81
2023/06/03 05:21:36;;;;;;;15.07;10.05;;;;;;;15.93;100.00;94448.56;5058836;28;20020;-81
2023/06/03 05:24:02;;;;;;;15.05;7.80;;;;;;;16.29;100.00;94449.59;5058805;28;20024;-81
2023/06/03 05:26:27;;;;;;;17.50;7.95;;;;;;;16.54;100.00;94453.47;5058271;28;20063;-81
2023/06/03 05:28:52;;;;;;;12.30;7.93;;;;;;;16.47;100.00;94450.47;5076557;28;20024;-81
2023/06/03 05:31:18;;;;;;;12.82;6.32;;;;;;;16.78;100.00;94452.31;5058530;28;20438;-81
2023/06/03 05:33:43;;;;;;;12.48;6.90;;;;;;;16.94;100.00;94457.25;5042113;28;20173;-81
2023/06/03 05:38:53;;;;;;;11.60;6.30;;;;;;;17.19;100.00;94457.66;5061242;28;20055;-81
2023/06/03 05:41:18;;;;;;;10.70;6.18;;;;;;;17.36;100.00;94456.94;5058388;28;20025;-81
2023/06/03 05:43:43;;;;;;;15.98;8.18;;;;;;;17.01;100.00;94457.59;5076191;28;20098;-81
2023/06/03 05:46:09;;;;;;;16.65;7.63;;;;;;;16.91;100.00;94460.47;5075682;28;20033;-81
2023/06/03 05:48:35;;;;;;;8.82;6.00;;;;;;;16.96;100.00;94455.84;5058306;28;20036;-81
2023/06/03 05:51:00;;;;;;;11.73;6.07;;;;;;;17.02;100.00;94464.44;5058203;28;20033;-81
2023/06/03 05:53:25;;;;;;;10.68;6.22;;;;;;;17.04;100.00;94461.50;5074788;28;20107;-81
2023/06/03 05:55:51;;;;;;;8.82;5.95;;;;;;;17.22;100.00;94452.53;5057660;28;20036;-81
2023/06/03 05:58:18;;;;;;;7.78;5.70;;;;;;;17.00;100.00;94455.25;5058008;28;20035;-81
2023/06/03 06:00:43;;;;;;;11.60;5.72;;;;;;;17.33;100.00;94455.66;5075876;28;20040;-81
2023/06/03 06:03:08;;;;;;;9.52;6.03;;;;;;;17.40;100.00;94457.88;5057951;28;20039;-81
2023/06/03 06:05:52;;;;;;;14.00;5.82;;;;;;;16.67;100.00;94459.75;5057742;28;20069;-81
2023/06/03 06:08:18;;;;;;;8.75;5.32;;;;;;;17.20;100.00;94465.31;5075800;28;20074;-81
2023/06/03 06:10:43;;;;;;;11.90;5.43;;;;;;;16.21;100.00;94455.59;5057931;28;20024;-81
2023/06/03 06:13:09;;;;;;;7.90;5.63;;;;;;;16.89;100.00;94463.44;5057739;28;20017;-81
2023/06/03 06:15:34;;;;;;;9.82;6.55;;;;;;;16.15;100.00;94467.38;5057616;28;20020;-81
2023/06/03 06:17:59;;;;;;;9.77;6.90;;;;;;;16.09;100.00;94466.69;5057715;28;20390;-81
2023/06/03 06:20:43;;;;;;;10.75;6.43;;;;;;;16.17;100.00;94468.63;5075463;28;20032;-81
2023/06/03 06:23:28;;;;;;;11.60;6.32;;;;;;;15.74;100.00;94469.00;5057552;28;20144;-81
2023/06/03 06:28:38;;;;;;;8.43;5.88;;;;;;;15.01;100.00;94478.34;5060237;28;20027;-81
2023/06/03 06:31:04;;;;;;;9.60;6.05;;;;;;;15.66;100.00;94481.84;5057447;28;20024;-81
2023/06/03 06:33:30;;;;;;;9.68;6.30;;;;;;;15.58;100.00;94485.19;5057444;28;20346;-81
2023/06/03 06:35:56;;;;;;;11.60;6.55;;;;;;;15.35;100.00;94489.59;5057021;28;20028;-81
2023/06/03 06:38:40;;;;;;;11.18;6.05;;;;;;;15.13;100.00;94489.22;5057358;28;20024;-81
2023/06/03 06:41:05;;;;;;;12.65;7.40;;;;;;;15.34;100.00;94491.44;5075144;28;20125;-81
2023/06/03 06:43:35;;;;;;;11.15;7.05;;;;;;;14.87;100.00;94491.53;5040825;28;20060;-81
2023/06/03 06:46:00;;;;;;;15.35;7.05;;;;;;;15.00;100.00;94507.69;5056895;28;20457;-81
2023/06/03 06:51:10;;;;;;;20.13;8.48;;;;;;;14.60;100.00;94505.41;5075039;28;20086;-81
2023/06/03 06:53:35;;;;;;;12.73;8.57;;;;;;;14.94;100.00;94507.75;5057009;28;20024;-81
2023/06/03 06:56:06;;;;;;;12.07;7.82;;;;;;;15.65;100.00;94501.41;5056684;28;20066;-81
2023/06/03 06:58:37;;;;;;;14.98;7.93;;;;;;;16.10;100.00;94499.97;5040460;28;20031;-80
2023/06/03 07:01:05;;;;;;;9.90;7.18;;;;;;;16.01;100.00;94499.13;5056796;28;20028;-81
2023/06/03 07:06:34;;;;;;;11.73;7.70;;;;;;;16.34;100.00;94491.75;5059159;28;20102;-81
2023/06/03 07:09:00;;;;;;;15.20;8.93;;;;;;;16.56;100.00;94503.41;5074568;28;20025;-81
2023/06/03 07:11:44;;;;;;;12.45;8.45;;;;;;;17.40;100.00;94496.81;5056951;28;20032;-81
2023/06/03 07:14:16;;;;;;;12.68;7.95;;;;;;;17.94;100.00;94507.22;5074524;28;20086;-81
2023/06/03 07:16:41;;;;;;;13.75;8.82;;;;;;;18.20;100.00;94501.94;5056259;28;20028;-81
2023/06/03 07:19:07;;;;;;;16.73;8.45;;;;;;;18.62;100.00;94511.28;5056598;28;20029;-81
2023/06/03 07:24:38;;;;;;;13.65;8.63;;;;;;;18.79;100.00;94498.00;5059075;28;20535;-81
2023/06/03 07:27:22;;;;;;;14.65;8.02;;;;;;;19.28;100.00;94504.09;5074206;28;20032;-81
2023/06/03 07:29:48;;;;;;;15.77;8.40;;;;;;;18.95;100.00;94508.09;5056324;28;20047;-81
2023/06/03 07:32:14;;;;;;;11.48;8.45;;;;;;;19.00;100.00;94502.63;5074522;28;20028;-81
2023/06/03 07:34:39;;;;;;;17.13;8.60;;;;;;;19.12;100.00;94503.84;5040109;28;20131;-82
2023/06/03 07:37:10;;;;;;;13.65;8.43;;;;;;;19.24;100.00;94514.59;5039463;28;20234;-81
2023/06/03 07:39:36;;;;;;;12.25;7.95;;;;;;;20.40;100.00;94507.47;5040162;28;20391;-83
2023/06/03 07:42:01;;;;;;;14.63;8.93;;;;;;;19.73;100.00;94508.09;5039825;28;20036;-81
2023/06/03 07:45:04;;;;;;;13.23;8.90;;;;;;;19.90;100.00;94510.63;5055945;28;20040;-81
2023/06/03 07:47:29;;;;;;;19.08;8.18;;;;;;;20.58;100.00;94508.88;5056072;28;20028;-83
2023/06/03 07:49:58;;;;;;;14.30;9.25;;;;;;;19.06;100.00;94508.56;5056183;28;20458;-83
2023/06/03 07:55:08;;;;;;;15.57;9.60;;;;;;;19.17;100.00;94507.13;5058757;28;20090;-83
2023/06/03 07:57:40;;;;;;;15.02;8.05;;;;;;;19.27;100.00;94513.16;5055775;28;20036;-83
2023/06/03 08:00:06;;;;;;;16.67;8.60;;;;;;;19.45;100.00;94512.00;5055872;28;20060;-83
2023/06/03 08:02:36;;;;;;;16.60;8.90;;;;;;;20.29;100.00;94515.09;5039471;28;20032;-81
2023/06/03 08:05:02;;;;;;;12.60;8.40;;;;;;;20.55;100.00;94500.78;5055854;28;20033;-83
2023/06/03 08:07:47;;;;;;;13.77;8.48;;;;;;;20.32;100.00;94512.56;5055751;28;20024;-84
2023/06/03 08:10:23;;;;;;;14.13;7.28;;;;;;;21.01;100.00;94501.59;5051628;28;20507;-83
2023/06/03 08:12:48;;;;;;;11.73;8.23;;;;;;;21.34;100.00;94502.63;5053673;28;20056;-84
2023/06/03 08:15:25;;;;;;;10.70;7.35;;;;;;;21.79;100.00;94500.97;5035892;28;20036;-84
2023/06/03 08:17:51;;;;;;;18.00;9.20;;;;;;;21.18;100.00;94500.63;5040265;28;20031;-83
2023/06/03 08:20:16;;;;;;;19.30;10.23;;;;;;;21.43;100.00;94505.94;5040010;28;20028;-83
2023/06/03 08:22:43;;;;;;;18.50;10.73;;;;;;;21.26;100.00;94501.63;5023547;28;20612;-83
2023/06/03 08:25:27;;;;;;;19.67;10.60;;;;;;;20.94;100.00;94501.34;5023501;28;20404;-83
2023/06/03 08:27:53;;;;;;;14.05;8.45;;;;;;;21.83;100.00;94501.88;5057621;28;20438;-83
2023/06/03 08:30:20;;;;;;;15.25;9.00;;;;;;;21.33;100.00;94507.19;5039719;28;20037;-83
2023/06/03 08:32:46;;;;;;;14.40;9.68;;;;;;;21.51;100.00;94500.84;5039867;28;20039;-83
2023/06/03 08:37:58;;;;;;;13.77;9.57;;;;;;;21.77;100.00;94513.84;5042635;28;20036;-83
2023/06/03 08:40:25;;;;;;;21.23;9.82;;;;;;;21.66;100.00;94507.41;5039966;28;20029;-84
2023/06/03 08:46:35;;;;;;;11.23;7.63;;;;;;;22.46;100.00;94519.25;5041739;28;20090;-83
2023/06/03 08:49:07;;;;;;;14.50;8.90;;;;;;;22.43;100.00;94517.28;5035693;28;20433;-81
2023/06/03 08:51:42;;;;;;;15.82;9.60;;;;;;;22.61;100.00;94518.91;5039770;28;20059;-84
2023/06/03 08:54:13;;;;;;;14.73;9.75;;;;;;;23.32;100.00;94519.22;5039952;28;20028;-81
2023/06/03 08:56:44;;;;;;;15.23;9.13;;;;;;;23.42;96.28;94515.22;5022730;28;20035;-82
2023/06/03 08:59:12;;;;;;;15.57;10.65;;;;;;;21.85;100.00;94515.63;5039306;28;20033;-83
2023/06/03 09:01:57;;;;;;;14.80;10.43;;;;;;;22.23;100.00;94515.53;5022551;28;20064;-83
2023/06/03 09:04:22;;;;;;;16.00;9.82;;;;;;;22.28;100.00;94510.75;5057045;28;20087;-83
2023/06/03 09:06:48;;;;;;;12.32;8.32;;;;;;;23.57;100.00;94510.97;5038715;28;20682;-83
2023/06/03 09:09:15;;;;;;;14.98;10.38;;;;;;;23.04;97.47;94508.53;5039296;28;20029;-81
2023/06/03 09:11:59;;;;;;;15.63;10.18;;;;;;;23.04;100.00;94504.00;5022844;28;20882;-83
2023/06/03 09:14:43;;;;;;;14.82;10.45;;;;;;;22.51;100.00;94504.91;5038955;28;20082;-83
2023/06/03 09:20:12;;;;;;;14.32;9.55;;;;;;;23.25;100.00;94508.28;5056832;28;20405;-83
2023/06/03 09:22:40;;;;;;;15.77;9.32;;;;;;;23.39;100.00;94510.59;5022690;28;20029;-81
2023/06/03 09:25:24;;;;;;;14.68;9.48;;;;;;;23.35;100.00;94513.16;5022349;28;20048;-81
2023/06/03 09:27:50;;;;;;;14.88;10.35;;;;;;;22.44;100.00;94510.81;5056214;28;20029;-83
2023/06/03 09:30:16;;;;;;;14.30;9.93;;;;;;;22.41;100.00;94505.38;5038725;28;20039;-83
2023/06/03 09:32:41;;;;;;;14.68;9.57;;;;;;;22.90;100.00;94515.06;5038538;28;20033;-83
2023/06/03 09:35:07;;;;;;;11.80;8.20;;;;;;;22.62;100.00;94515.13;5038841;28;20032;-83
2023/06/03 09:40:29;;;;;;;15.45;9.40;;;;;;;22.63;100.00;94514.75;5041156;28;20091;-83
2023/06/03 09:43:13;;;;;;;11.18;8.10;;;;;;;22.53;100.00;94509.94;5038537;28;20083;-83
2023/06/03 09:45:39;;;;;;;15.73;9.32;;;;;;;22.90;100.00;94509.72;5037856;28;20039;-83
2023/06/03 09:48:24;;;;;;;17.27;9.30;;;;;;;22.64;100.00;94510.97;5038252;28;20032;-83
2023/06/03 09:50:50;;;;;;;13.80;8.70;;;;;;;22.02;100.00;94511.16;5056169;28;20495;-83
2023/06/03 09:53:19;;;;;;;16.00;9.93;;;;;;;22.20;100.00;94505.56;5038360;28;20120;-83
2023/06/03 09:55:45;;;;;;;13.55;10.07;;;;;;;22.05;100.00;94505.16;5037919;28;20021;-83
2023/06/03 10:01:13;;;;;;;15.57;10.23;;;;;;;22.28;100.00;94505.41;5055775;28;20040;-83
2023/06/03 10:03:56;;;;;;;18.85;10.70;;;;;;;22.50;100.00;94502.56;5021822;28;20028;-83
2023/06/03 10:06:22;;;;;;;14.90;10.57;;;;;;;22.49;100.00;94503.69;5037595;28;20116;-83
2023/06/03 10:08:47;;;;;;;14.10;9.57;;;;;;;22.31;100.00;94504.75;5021627;28;20073;-83
2023/06/03 10:11:12;;;;;;;19.02;12.23;;;;;;;21.36;100.00;94492.41;5037805;28;20446;-83
2023/06/03 10:16:41;;;;;;;19.52;11.13;;;;;;;21.33;100.00;94491.19;5055294;28;20473;-83
2023/06/03 10:19:26;;;;;;;12.80;8.95;;;;;;;21.84;100.00;94495.41;5055585;28;20346;-83
2023/06/03 10:21:51;;;;;;;16.83;10.25;;;;;;;20.94;100.00;94490.69;5038121;28;20438;-83
2023/06/03 10:24:17;;;;;;;14.90;10.55;;;;;;;21.93;100.00;94486.50;5055374;28;20055;-83
2023/06/03 10:26:43;;;;;;;18.67;12.27;;;;;;;21.72;100.00;94500.75;5055064;28;20044;-83
2023/06/03 10:29:08;;;;;;;17.52;10.90;;;;;;;21.37;100.00;94491.31;5037610;28;20037;-82
2023/06/03 10:31:34;;;;;;;16.10;10.52;;;;;;;21.45;100.00;94489.63;5037552;28;20112;-83
2023/06/03 10:37:04;;;;;;;15.13;9.45;;;;;;;22.74;100.00;94483.78;5054880;28;20036;-83
2023/06/03 10:39:31;;;;;;;18.60;10.00;;;;;;;23.46;100.00;94485.91;5036716;28;20128;-83
2023/06/03 10:42:19;;;;;;;15.18;8.20;;;;;;;24.61;100.00;94479.47;5020704;28;20033;-83
2023/06/03 10:44:44;;;;;;;19.45;9.40;;;;;;;23.91;99.17;94483.81;5055608;28;20439;-83
2023/06/03 10:53:21;;;;;;;12.65;8.82;;;;;;;22.91;100.00;94473.88;5055151;28;20255;-81
2023/06/03 10:55:56;;;;;;;14.35;9.55;;;;;;;22.08;100.00;94474.34;5036812;28;20032;-81
2023/06/03 10:58:24;;;;;;;12.80;8.15;;;;;;;23.20;100.00;94476.50;5055155;28;20087;-83
2023/06/03 11:01:05;;;;;;;13.25;8.02;;;;;;;23.41;100.00;94470.91;5020789;28;20055;-83
2023/06/03 11:03:53;;;;;;;11.18;8.23;;;;;;;24.03;100.00;94478.38;5036958;28;20033;-83
2023/06/03 11:06:21;;;;;;;14.55;8.02;;;;;;;22.77;100.00;94474.31;5036596;28;20029;-83
2023/06/03 11:09:02;;;;;;;11.85;8.40;;;;;;;22.71;100.00;94462.31;5054568;28;20356;-83
2023/06/03 11:12:06;;;;;;;13.23;8.60;;;;;;;22.13;100.00;94458.09;5054451;28;20024;-83
2023/06/03 11:14:40;;;;;;;14.90;9.10;;;;;;;21.87;100.00;94456.63;5054541;28;20024;-83
2023/06/03 11:17:05;;;;;;;12.23;7.80;;;;;;;22.53;100.00;94456.53;5036357;28;20040;-84
2023/06/03 11:19:35;;;;;;;14.23;7.43;;;;;;;22.22;100.00;94463.28;5054470;28;20033;-83
2023/06/03 11:22:04;;;;;;;15.25;8.65;;;;;;;21.58;100.00;94458.41;5054389;28;20125;-83
2023/06/03 11:24:42;;;;;;;14.50;8.63;;;;;;;21.59;100.00;94459.97;5054238;28;20431;-83
2023/06/03 11:27:29;;;;;;;12.07;8.13;;;;;;;21.15;100.00;94449.91;5054305;28;20091;-83
2023/06/03 11:29:59;;;;;;;10.95;7.97;;;;;;;20.84;100.00;94454.63;5054280;28;20039;-83
2023/06/03 11:32:29;;;;;;;20.20;9.95;;;;;;;21.15;100.00;94455.22;5036352;28;20396;-84
2023/06/03 11:35:27;;;;;;;11.68;8.57;;;;;;;21.03;100.00;94454.09;5020107;28;20060;-83
2023/06/03 11:37:52;;;;;;;14.20;8.70;;;;;;;20.71;100.00;94443.16;5020213;28;20423;-83
2023/06/03 11:40:20;;;;;;;13.40;9.90;;;;;;;20.25;100.00;94442.38;5036285;28;20032;-83
2023/06/03 11:42:51;;;;;;;12.30;9.13;;;;;;;20.96;100.00;94439.78;5036337;28;20039;-83
2023/06/03 11:45:27;;;;;;;13.93;8.85;;;;;;;21.01;100.00;94440.34;5053847;28;20071;-83
2023/06/03 11:47:56;;;;;;;16.45;9.52;;;;;;;20.68;100.00;94446.50;5036304;28;20044;-83
2023/06/03 11:50:53;;;;;;;14.35;10.57;;;;;;;21.11;100.00;94438.34;5054013;28;20057;-83
2023/06/03 11:53:40;;;;;;;15.00;9.85;;;;;;;21.90;100.00;94445.28;5020103;28;20032;-83
2023/06/03 11:56:24;;;;;;;12.20;8.77;;;;;;;22.56;100.00;94439.84;5019697;28;20131;-83
2023/06/03 11:58:53;;;;;;;17.13;8.48;;;;;;;22.58;100.00;94443.69;5035949;28;20365;-83
2023/06/03 12:01:18;;;;;;;13.10;8.70;;;;;;;21.99;100.00;94437.91;5035937;28;20060;-83
2023/06/03 12:03:59;;;;;;;17.85;10.20;;;;;;;22.35;100.00;94434.69;5035922;28;20100;-83
2023/06/03 12:06:25;;;;;;;14.27;10.50;;;;;;;21.09;100.00;94436.00;5035495;28;20036;-81
2023/06/03 12:08:51;;;;;;;23.42;12.90;;;;;;;21.52;100.00;94431.22;5019912;28;20033;-83
2023/06/03 12:11:27;;;;;;;23.42;11.57;;;;;;;21.72;100.00;94437.53;5036645;28;20064;-83
2023/06/03 12:16:37;;;;;;;16.38;11.77;;;;;;;20.50;100.00;94435.25;5038154;28;20527;-83
2023/06/03 12:19:04;;;;;;;20.90;12.63;;;;;;;20.57;100.00;94438.13;5035859;28;20082;-83
2023/06/03 12:21:34;;;;;;;19.27;11.82;;;;;;;20.55;100.00;94436.91;5035766;28;20109;-83
2023/06/03 12:26:44;;;;;;;18.88;13.38;;;;;;;20.96;100.00;94429.91;5038153;28;20059;-83
2023/06/03 12:32:14;;;;;;;17.77;12.90;;;;;;;20.85;100.00;94431.47;5053673;28;20032;-82
2023/06/03 12:34:40;;;;;;;29.08;14.52;;;;;;;20.90;100.00;94432.03;5035694;28;20017;-82
2023/06/03 12:37:07;;;;;;;20.00;13.43;;;;;;;20.92;100.00;94433.56;5018954;28;20075;-83
2023/06/03 12:39:39;;;;;;;19.98;15.30;;;;;;;20.61;100.00;94440.91;5035725;28;20145;-83
2023/06/03 12:42:06;;;;;;;20.33;14.27;;;;;;;20.51;100.00;94441.31;5035876;28;20123;-82
2023/06/03 12:45:09;;;;;;;22.52;16.08;;;;;;;20.03;100.00;94439.75;5035476;28;20021;-82
2023/06/03 12:47:45;;;;;;;23.57;16.23;;;;;;;19.75;100.00;94447.41;5052957;28;20078;-82
2023/06/03 12:50:11;;;;;;;24.02;17.67;;;;;;;19.59;100.00;94455.19;5019311;28;20068;-82
2023/06/03 12:52:37;;;;;;;24.05;16.80;;;;;;;19.81;100.00;94456.75;5035502;28;20068;-83
2023/06/03 12:55:24;;;;;;;28.98;19.38;;;;;;;19.91;100.00;94463.56;5035542;28;20028;-82